Accueil
METAR-TAF:

METAR-TAF

Aéroports :

Futuna, France

Aérodrome de Futuna Pointe Vele

latitude: 14-19S, longitude: 178-07W, altitude: 6 m

METAR: absent

Heure: 19:06 (07:06 UTC)

Prévision

Le bulletin a été fait il y a 2 heures et 6 minutes, à 05:00 UTC
Prévision valable du 27 à 06 UTC au 28 à 06 UTC
Vent 12 kt de est
Visibilité 10 km ou plus
Nuages épars à une hauteur de 2000 ft
Temporairement
du 27 à 06 UTC au 27 à 21 UTC
Visibilité: 4000 m
Nuages épars à une hauteur de 1800 ft, Cumulus congestus.
averses de pluie
Probabilité 40% :
Temporairement
du 27 à 06 UTC au 27 à 18 UTC
Visibilité: 2000 m
Nuages fragmentés à une hauteur de 1400 ft
Nuages épars à une hauteur de 1800 ft, Cumulonimbus.
orage, pluie

TAF: NLWF 270500Z 2706/2806 09012KT 9999 SCT020 TEMPO 2706/2721 4000 SHRA SCT018TCU PROB40 TEMPO 2706/2718 2000 TSRA BKN014 SCT018CB

Observations et prévisions météorologiques de plus de 4000 aéroports (messages METAR et TAF).

Les stations disponibles sont représentées par des disques jaunes et rouges sur la carte.

Passer la souris dessus pour voir le nom de la station.

Cliquer dessus pour voir les observations et prévisions météorologiques.

Pour changer de carte: cliquez sur les boutons verts avec une croix noire pour zoomer, sur le bouton vert avec un tiret pour effectuer un zoom arrière, ou sur les flèches vertes pour les cartes adjacentes.


METAR-TAF: